sensor_id;sensor_type;location;lat;lon;timestamp;temperature;humidity
68257;DHT22;55069;51.568;4.656;2022-11-09T00:01:27;13.75;78.51
68257;DHT22;55069;51.568;4.656;2022-11-09T00:03:54;13.73;78.22
68257;DHT22;55069;51.568;4.656;2022-11-09T00:06:21;13.68;78.32
68257;DHT22;55069;51.568;4.656;2022-11-09T00:08:46;13.66;78.71
68257;DHT22;55069;51.568;4.656;2022-11-09T00:11:12;13.57;78.89
68257;DHT22;55069;51.568;4.656;2022-11-09T00:13:39;13.50;79.44
68257;DHT22;55069;51.568;4.656;2022-11-09T00:16:05;13.53;79.17
68257;DHT22;55069;51.568;4.656;2022-11-09T00:18:33;13.40;79.45
68257;DHT22;55069;51.568;4.656;2022-11-09T00:21:04;13.37;79.64
68257;DHT22;55069;51.568;4.656;2022-11-09T00:23:30;13.29;79.82
68257;DHT22;55069;51.568;4.656;2022-11-09T00:25:59;13.19;80.51
68257;DHT22;55069;51.568;4.656;2022-11-09T00:28:25;13.15;80.44
68257;DHT22;55069;51.568;4.656;2022-11-09T00:30:57;13.09;80.82
68257;DHT22;55069;51.568;4.656;2022-11-09T00:33:23;13.09;80.72
68257;DHT22;55069;51.568;4.656;2022-11-09T00:35:48;13.05;81.06
68257;DHT22;55069;51.568;4.656;2022-11-09T00:38:14;12.98;81.26
68257;DHT22;55069;51.568;4.656;2022-11-09T00:40:39;12.98;81.55
68257;DHT22;55069;51.568;4.656;2022-11-09T00:43:05;12.92;81.85
68257;DHT22;55069;51.568;4.656;2022-11-09T00:45:30;12.89;81.86
68257;DHT22;55069;51.568;4.656;2022-11-09T00:47:56;12.84;82.53
68257;DHT22;55069;51.568;4.656;2022-11-09T00:50:22;12.85;82.31
68257;DHT22;55069;51.568;4.656;2022-11-09T00:52:47;12.84;82.63
68257;DHT22;55069;51.568;4.656;2022-11-09T00:55:13;12.77;82.92
68257;DHT22;55069;51.568;4.656;2022-11-09T00:57:38;12.79;83.18
68257;DHT22;55069;51.568;4.656;2022-11-09T01:00:04;12.79;83.16
68257;DHT22;55069;51.568;4.656;2022-11-09T01:02:30;12.82;83.05
68257;DHT22;55069;51.568;4.656;2022-11-09T01:04:56;12.81;83.18
68257;DHT22;55069;51.568;4.656;2022-11-09T01:07:23;12.82;83.42
68257;DHT22;55069;51.568;4.656;2022-11-09T01:09:48;12.82;83.50
68257;DHT22;55069;51.568;4.656;2022-11-09T01:12:14;12.84;83.67
68257;DHT22;55069;51.568;4.656;2022-11-09T01:14:39;12.81;83.76
68257;DHT22;55069;51.568;4.656;2022-11-09T01:17:05;12.88;83.80
68257;DHT22;55069;51.568;4.656;2022-11-09T01:19:31;12.93;83.57
68257;DHT22;55069;51.568;4.656;2022-11-09T01:21:57;13.00;83.42
68257;DHT22;55069;51.568;4.656;2022-11-09T01:24:22;12.99;83.59
68257;DHT22;55069;51.568;4.656;2022-11-09T01:26:48;12.96;83.86
68257;DHT22;55069;51.568;4.656;2022-11-09T01:29:13;13.00;83.54
68257;DHT22;55069;51.568;4.656;2022-11-09T01:31:39;12.99;83.66
68257;DHT22;55069;51.568;4.656;2022-11-09T01:34:04;13.03;83.67
68257;DHT22;55069;51.568;4.656;2022-11-09T01:36:31;12.95;84.05
68257;DHT22;55069;51.568;4.656;2022-11-09T01:38:59;13.06;83.65
68257;DHT22;55069;51.568;4.656;2022-11-09T01:41:26;13.10;83.41
68257;DHT22;55069;51.568;4.656;2022-11-09T01:44:14;13.10;83.51
68257;DHT22;55069;51.568;4.656;2022-11-09T01:49:38;13.16;82.90
68257;DHT22;55069;51.568;4.656;2022-11-09T01:54:57;13.23;82.40
68257;DHT22;55069;51.568;4.656;2022-11-09T01:57:30;13.22;82.23
68257;DHT22;55069;51.568;4.656;2022-11-09T02:00:06;13.23;82.39
68257;DHT22;55069;51.568;4.656;2022-11-09T02:02:43;13.22;82.23
68257;DHT22;55069;51.568;4.656;2022-11-09T02:05:15;13.24;82.13
68257;DHT22;55069;51.568;4.656;2022-11-09T02:07:43;13.16;82.47
68257;DHT22;55069;51.568;4.656;2022-11-09T02:10:14;13.13;82.43
68257;DHT22;55069;51.568;4.656;2022-11-09T02:12:45;13.26;82.14
68257;DHT22;55069;51.568;4.656;2022-11-09T02:15:11;13.24;82.18
68257;DHT22;55069;51.568;4.656;2022-11-09T02:17:38;13.23;82.14
68257;DHT22;55069;51.568;4.656;2022-11-09T02:20:10;13.27;81.66
68257;DHT22;55069;51.568;4.656;2022-11-09T02:22:36;13.32;81.73
68257;DHT22;55069;51.568;4.656;2022-11-09T02:25:04;13.32;81.60
68257;DHT22;55069;51.568;4.656;2022-11-09T02:27:30;13.37;81.44
68257;DHT22;55069;51.568;4.656;2022-11-09T02:29:57;13.37;81.18
68257;DHT22;55069;51.568;4.656;2022-11-09T02:32:25;13.32;81.06
68257;DHT22;55069;51.568;4.656;2022-11-09T02:34:55;13.35;80.92
68257;DHT22;55069;51.568;4.656;2022-11-09T02:37:41;13.36;80.86
68257;DHT22;55069;51.568;4.656;2022-11-09T02:40:21;13.23;81.12
68257;DHT22;55069;51.568;4.656;2022-11-09T02:42:48;13.09;81.34
68257;DHT22;55069;51.568;4.656;2022-11-09T02:45:14;12.99;81.83
68257;DHT22;55069;51.568;4.656;2022-11-09T02:47:40;12.95;82.07
68257;DHT22;55069;51.568;4.656;2022-11-09T02:50:06;12.92;81.84
68257;DHT22;55069;51.568;4.656;2022-11-09T02:52:32;12.88;82.11
68257;DHT22;55069;51.568;4.656;2022-11-09T02:54:57;12.89;81.68
68257;DHT22;55069;51.568;4.656;2022-11-09T02:57:23;12.81;81.82
68257;DHT22;55069;51.568;4.656;2022-11-09T02:59:49;12.69;82.13
68257;DHT22;55069;51.568;4.656;2022-11-09T03:02:15;12.61;82.37
68257;DHT22;55069;51.568;4.656;2022-11-09T03:04:41;12.67;82.20
68257;DHT22;55069;51.568;4.656;2022-11-09T03:07:07;12.62;82.57
68257;DHT22;55069;51.568;4.656;2022-11-09T03:09:33;12.62;82.13
68257;DHT22;55069;51.568;4.656;2022-11-09T03:11:58;12.53;82.81
68257;DHT22;55069;51.568;4.656;2022-11-09T03:14:45;12.50;82.74
68257;DHT22;55069;51.568;4.656;2022-11-09T03:17:11;12.40;83.24
68257;DHT22;55069;51.568;4.656;2022-11-09T03:19:38;12.44;83.05
68257;DHT22;55069;51.568;4.656;2022-11-09T03:22:04;12.34;83.49
68257;DHT22;55069;51.568;4.656;2022-11-09T03:24:29;12.24;83.73
68257;DHT22;55069;51.568;4.656;2022-11-09T03:26:56;12.23;83.67
68257;DHT22;55069;51.568;4.656;2022-11-09T03:29:22;12.22;83.81
68257;DHT22;55069;51.568;4.656;2022-11-09T03:31:47;12.16;83.86
68257;DHT22;55069;51.568;4.656;2022-11-09T03:34:13;12.19;83.85
68257;DHT22;55069;51.568;4.656;2022-11-09T03:36:39;12.16;84.17
68257;DHT22;55069;51.568;4.656;2022-11-09T03:39:04;12.09;84.30
68257;DHT22;55069;51.568;4.656;2022-11-09T03:41:31;11.99;84.45
68257;DHT22;55069;51.568;4.656;2022-11-09T03:43:56;12.05;84.29
68257;DHT22;55069;51.568;4.656;2022-11-09T03:46:22;12.05;84.25
68257;DHT22;55069;51.568;4.656;2022-11-09T03:48:47;12.03;84.42
68257;DHT22;55069;51.568;4.656;2022-11-09T03:51:13;12.03;84.31
68257;DHT22;55069;51.568;4.656;2022-11-09T03:53:38;12.00;84.78
68257;DHT22;55069;51.568;4.656;2022-11-09T03:56:04;11.97;84.75
68257;DHT22;55069;51.568;4.656;2022-11-09T03:58:30;11.90;85.25
68257;DHT22;55069;51.568;4.656;2022-11-09T04:00:56;11.92;85.08
68257;DHT22;55069;51.568;4.656;2022-11-09T04:03:21;11.90;85.27
68257;DHT22;55069;51.568;4.656;2022-11-09T04:05:47;11.96;85.34
68257;DHT22;55069;51.568;4.656;2022-11-09T04:08:12;12.02;85.11
68257;DHT22;55069;51.568;4.656;2022-11-09T04:10:38;12.02;85.06
68257;DHT22;55069;51.568;4.656;2022-11-09T04:13:04;12.06;84.96
68257;DHT22;55069;51.568;4.656;2022-11-09T04:15:29;12.07;84.98
68257;DHT22;55069;51.568;4.656;2022-11-09T04:17:59;12.05;85.15
68257;DHT22;55069;51.568;4.656;2022-11-09T04:20:27;12.10;85.24
68257;DHT22;55069;51.568;4.656;2022-11-09T04:22:55;12.12;85.11
68257;DHT22;55069;51.568;4.656;2022-11-09T04:25:20;12.13;85.26
68257;DHT22;55069;51.568;4.656;2022-11-09T04:27:46;12.14;85.11
68257;DHT22;55069;51.568;4.656;2022-11-09T04:30:12;12.12;85.20
68257;DHT22;55069;51.568;4.656;2022-11-09T04:32:38;12.10;85.35
68257;DHT22;55069;51.568;4.656;2022-11-09T04:35:03;12.09;85.45
68257;DHT22;55069;51.568;4.656;2022-11-09T04:37:29;12.02;85.59
68257;DHT22;55069;51.568;4.656;2022-11-09T04:39:54;12.03;85.79
68257;DHT22;55069;51.568;4.656;2022-11-09T04:42:20;12.02;85.72
68257;DHT22;55069;51.568;4.656;2022-11-09T04:44:45;11.97;85.91
68257;DHT22;55069;51.568;4.656;2022-11-09T04:47:11;12.05;85.81
68257;DHT22;55069;51.568;4.656;2022-11-09T04:49:36;12.03;85.85
68257;DHT22;55069;51.568;4.656;2022-11-09T04:52:02;12.02;85.87
68257;DHT22;55069;51.568;4.656;2022-11-09T04:54:28;12.06;85.89
68257;DHT22;55069;51.568;4.656;2022-11-09T04:56:54;12.00;86.07
68257;DHT22;55069;51.568;4.656;2022-11-09T04:59:19;12.05;86.05
68257;DHT22;55069;51.568;4.656;2022-11-09T05:01:45;12.07;85.94
68257;DHT22;55069;51.568;4.656;2022-11-09T05:04:10;12.06;85.81
68257;DHT22;55069;51.568;4.656;2022-11-09T05:06:36;12.12;85.83
68257;DHT22;55069;51.568;4.656;2022-11-09T05:09:05;12.06;85.71
68257;DHT22;55069;51.568;4.656;2022-11-09T05:11:33;12.03;85.89
68257;DHT22;55069;51.568;4.656;2022-11-09T05:13:59;12.05;86.12
68257;DHT22;55069;51.568;4.656;2022-11-09T05:16:24;12.03;86.02
68257;DHT22;55069;51.568;4.656;2022-11-09T05:18:50;11.96;86.22
68257;DHT22;55069;51.568;4.656;2022-11-09T05:21:16;11.96;86.20
68257;DHT22;55069;51.568;4.656;2022-11-09T05:23:42;11.99;86.05
68257;DHT22;55069;51.568;4.656;2022-11-09T05:26:28;11.89;86.30
68257;DHT22;55069;51.568;4.656;2022-11-09T05:28:54;11.89;86.49
68257;DHT22;55069;51.568;4.656;2022-11-09T05:31:20;11.89;86.17
68257;DHT22;55069;51.568;4.656;2022-11-09T05:33:50;11.89;86.25
68257;DHT22;55069;51.568;4.656;2022-11-09T05:36:16;11.85;86.36
68257;DHT22;55069;51.568;4.656;2022-11-09T05:38:42;11.87;86.37
68257;DHT22;55069;51.568;4.656;2022-11-09T05:41:08;11.79;86.43
68257;DHT22;55069;51.568;4.656;2022-11-09T05:43:34;11.72;86.81
68257;DHT22;55069;51.568;4.656;2022-11-09T05:45:59;11.69;86.90
68257;DHT22;55069;51.568;4.656;2022-11-09T05:48:25;11.74;86.93
68257;DHT22;55069;51.568;4.656;2022-11-09T05:50:51;11.66;87.07
68257;DHT22;55069;51.568;4.656;2022-11-09T05:53:21;11.65;87.06
68257;DHT22;55069;51.568;4.656;2022-11-09T05:55:46;11.64;87.19
68257;DHT22;55069;51.568;4.656;2022-11-09T05:58:12;11.65;87.29
68257;DHT22;55069;51.568;4.656;2022-11-09T06:00:37;11.71;87.23
68257;DHT22;55069;51.568;4.656;2022-11-09T06:03:05;11.66;87.17
68257;DHT22;55069;51.568;4.656;2022-11-09T06:05:32;11.71;87.19
68257;DHT22;55069;51.568;4.656;2022-11-09T06:08:03;11.66;87.39
68257;DHT22;55069;51.568;4.656;2022-11-09T06:10:29;11.59;87.57
68257;DHT22;55069;51.568;4.656;2022-11-09T06:12:54;11.47;87.87
68257;DHT22;55069;51.568;4.656;2022-11-09T06:15:20;11.45;88.23
68257;DHT22;55069;51.568;4.656;2022-11-09T06:17:53;11.50;88.19
68257;DHT22;55069;51.568;4.656;2022-11-09T06:20:19;11.47;88.27
68257;DHT22;55069;51.568;4.656;2022-11-09T06:22:52;11.47;88.34
68257;DHT22;55069;51.568;4.656;2022-11-09T06:25:18;11.41;88.44
68257;DHT22;55069;51.568;4.656;2022-11-09T06:27:44;11.47;88.62
68257;DHT22;55069;51.568;4.656;2022-11-09T06:30:10;11.59;88.42
68257;DHT22;55069;51.568;4.656;2022-11-09T06:32:35;11.71;87.80
68257;DHT22;55069;51.568;4.656;2022-11-09T06:35:01;11.75;87.61
68257;DHT22;55069;51.568;4.656;2022-11-09T06:37:26;11.85;87.15
68257;DHT22;55069;51.568;4.656;2022-11-09T06:39:52;11.90;86.96
68257;DHT22;55069;51.568;4.656;2022-11-09T06:42:17;11.93;86.93
68257;DHT22;55069;51.568;4.656;2022-11-09T06:44:43;11.99;86.63
68257;DHT22;55069;51.568;4.656;2022-11-09T06:47:08;11.99;86.57
68257;DHT22;55069;51.568;4.656;2022-11-09T06:49:34;12.02;86.37
68257;DHT22;55069;51.568;4.656;2022-11-09T06:52:00;12.07;86.12
68257;DHT22;55069;51.568;4.656;2022-11-09T06:54:25;12.16;85.79
68257;DHT22;55069;51.568;4.656;2022-11-09T06:56:55;12.26;85.35
68257;DHT22;55069;51.568;4.656;2022-11-09T06:59:20;12.36;84.92
68257;DHT22;55069;51.568;4.656;2022-11-09T07:01:48;12.33;84.80
68257;DHT22;55069;51.568;4.656;2022-11-09T07:04:14;12.33;84.45
68257;DHT22;55069;51.568;4.656;2022-11-09T07:06:40;12.26;84.14
68257;DHT22;55069;51.568;4.656;2022-11-09T07:09:07;12.22;84.40
68257;DHT22;55069;51.568;4.656;2022-11-09T07:11:33;12.26;84.56
68257;DHT22;55069;51.568;4.656;2022-11-09T07:13:59;12.24;84.44
68257;DHT22;55069;51.568;4.656;2022-11-09T07:16:31;12.26;84.26
68257;DHT22;55069;51.568;4.656;2022-11-09T07:18:57;12.30;84.34
68257;DHT22;55069;51.568;4.656;2022-11-09T07:21:23;12.30;84.30
68257;DHT22;55069;51.568;4.656;2022-11-09T07:23:49;12.26;84.21
68257;DHT22;55069;51.568;4.656;2022-11-09T07:26:15;12.27;84.04
68257;DHT22;55069;51.568;4.656;2022-11-09T07:28:41;12.26;84.10
68257;DHT22;55069;51.568;4.656;2022-11-09T07:31:08;12.23;84.68
68257;DHT22;55069;51.568;4.656;2022-11-09T07:33:34;12.22;84.51
68257;DHT22;55069;51.568;4.656;2022-11-09T07:36:01;12.33;84.36
68257;DHT22;55069;51.568;4.656;2022-11-09T07:38:28;12.34;84.19
68257;DHT22;55069;51.568;4.656;2022-11-09T07:41:00;12.40;84.28
68257;DHT22;55069;51.568;4.656;2022-11-09T07:43:26;12.41;84.21
68257;DHT22;55069;51.568;4.656;2022-11-09T07:45:54;12.37;84.25
68257;DHT22;55069;51.568;4.656;2022-11-09T07:48:20;12.40;84.34
68257;DHT22;55069;51.568;4.656;2022-11-09T07:50:46;12.47;84.26
68257;DHT22;55069;51.568;4.656;2022-11-09T07:53:13;12.41;84.37
68257;DHT22;55069;51.568;4.656;2022-11-09T07:55:39;12.43;84.34
68257;DHT22;55069;51.568;4.656;2022-11-09T07:58:08;12.36;84.56
68257;DHT22;55069;51.568;4.656;2022-11-09T08:00:36;12.37;84.62
68257;DHT22;55069;51.568;4.656;2022-11-09T08:03:03;12.44;84.46
68257;DHT22;55069;51.568;4.656;2022-11-09T08:05:28;12.47;84.20
68257;DHT22;55069;51.568;4.656;2022-11-09T08:07:55;12.51;84.14
68257;DHT22;55069;51.568;4.656;2022-11-09T08:10:21;12.54;84.28
68257;DHT22;55069;51.568;4.656;2022-11-09T08:12:59;12.67;83.84
68257;DHT22;55069;51.568;4.656;2022-11-09T08:15:26;12.69;83.79
68257;DHT22;55069;51.568;4.656;2022-11-09T08:17:52;12.77;83.23
68257;DHT22;55069;51.568;4.656;2022-11-09T08:20:18;12.84;83.14
68257;DHT22;55069;51.568;4.656;2022-11-09T08:22:45;12.89;83.05
68257;DHT22;55069;51.568;4.656;2022-11-09T08:25:12;12.93;82.90
68257;DHT22;55069;51.568;4.656;2022-11-09T08:27:38;13.05;82.58
68257;DHT22;55069;51.568;4.656;2022-11-09T08:30:06;13.13;82.03
68257;DHT22;55069;51.568;4.656;2022-11-09T08:32:33;13.13;82.28
68257;DHT22;55069;51.568;4.656;2022-11-09T08:34:58;13.10;82.12
68257;DHT22;55069;51.568;4.656;2022-11-09T08:37:24;13.09;82.11
68257;DHT22;55069;51.568;4.656;2022-11-09T08:39:50;13.26;81.93
68257;DHT22;55069;51.568;4.656;2022-11-09T08:42:15;13.39;81.45
68257;DHT22;55069;51.568;4.656;2022-11-09T08:44:41;13.60;81.21
68257;DHT22;55069;51.568;4.656;2022-11-09T08:47:07;13.68;80.39
68257;DHT22;55069;51.568;4.656;2022-11-09T08:49:33;13.87;79.83
68257;DHT22;55069;51.568;4.656;2022-11-09T08:51:59;13.91;79.62
68257;DHT22;55069;51.568;4.656;2022-11-09T08:54:25;13.98;78.85
68257;DHT22;55069;51.568;4.656;2022-11-09T08:56:54;14.01;78.60
68257;DHT22;55069;51.568;4.656;2022-11-09T08:59:20;14.04;78.67
68257;DHT22;55069;51.568;4.656;2022-11-09T09:01:46;14.02;78.49
68257;DHT22;55069;51.568;4.656;2022-11-09T09:04:11;13.97;78.94
68257;DHT22;55069;51.568;4.656;2022-11-09T09:06:37;13.95;78.43
68257;DHT22;55069;51.568;4.656;2022-11-09T09:09:03;13.95;78.52
68257;DHT22;55069;51.568;4.656;2022-11-09T09:11:28;13.87;78.71
68257;DHT22;55069;51.568;4.656;2022-11-09T09:13:54;13.97;78.43
68257;DHT22;55069;51.568;4.656;2022-11-09T09:16:19;14.09;78.54
68257;DHT22;55069;51.568;4.656;2022-11-09T09:18:47;14.16;78.17
68257;DHT22;55069;51.568;4.656;2022-11-09T09:21:13;14.21;78.01
68257;DHT22;55069;51.568;4.656;2022-11-09T09:23:39;14.14;78.19
68257;DHT22;55069;51.568;4.656;2022-11-09T09:26:04;14.11;77.22
68257;DHT22;55069;51.568;4.656;2022-11-09T09:28:30;14.11;77.44
68257;DHT22;55069;51.568;4.656;2022-11-09T09:30:57;14.02;77.48
68257;DHT22;55069;51.568;4.656;2022-11-09T09:33:24;14.01;78.08
68257;DHT22;55069;51.568;4.656;2022-11-09T09:35:50;13.92;77.72
68257;DHT22;55069;51.568;4.656;2022-11-09T09:38:16;13.89;77.67
68257;DHT22;55069;51.568;4.656;2022-11-09T09:40:55;13.91;77.28
68257;DHT22;55069;51.568;4.656;2022-11-09T09:43:43;13.95;77.58
68257;DHT22;55069;51.568;4.656;2022-11-09T09:46:34;14.01;77.30
68257;DHT22;55069;51.568;4.656;2022-11-09T09:49:10;14.00;77.81
68257;DHT22;55069;51.568;4.656;2022-11-09T09:54:17;14.02;76.98
68257;DHT22;55069;51.568;4.656;2022-11-09T09:56:45;14.06;77.02
68257;DHT22;55069;51.568;4.656;2022-11-09T10:01:58;13.91;77.00
68257;DHT22;55069;51.568;4.656;2022-11-09T10:04:32;13.95;77.27
68257;DHT22;55069;51.568;4.656;2022-11-09T10:15:35;13.91;76.70
68257;DHT22;55069;51.568;4.656;2022-11-09T10:21:21;13.91;76.29
68257;DHT22;55069;51.568;4.656;2022-11-09T10:29:00;14.04;76.39
68257;DHT22;55069;51.568;4.656;2022-11-09T10:31:31;14.12;76.22
68257;DHT22;55069;51.568;4.656;2022-11-09T10:34:02;14.14;75.75
68257;DHT22;55069;51.568;4.656;2022-11-09T10:36:41;14.16;76.61
68257;DHT22;55069;51.568;4.656;2022-11-09T10:39:11;14.18;76.15
68257;DHT22;55069;51.568;4.656;2022-11-09T10:41:56;14.09;75.27
68257;DHT22;55069;51.568;4.656;2022-11-09T10:44:41;14.28;75.95
68257;DHT22;55069;51.568;4.656;2022-11-09T10:47:25;14.50;75.70
68257;DHT22;55069;51.568;4.656;2022-11-09T10:53:24;14.34;75.35
68257;DHT22;55069;51.568;4.656;2022-11-09T10:56:17;14.02;78.04
68257;DHT22;55069;51.568;4.656;2022-11-09T10:59:01;13.75;81.25
68257;DHT22;55069;51.568;4.656;2022-11-09T11:01:45;13.68;83.24
68257;DHT22;55069;51.568;4.656;2022-11-09T11:04:30;13.61;83.42
68257;DHT22;55069;51.568;4.656;2022-11-09T11:07:20;13.64;83.17
68257;DHT22;55069;51.568;4.656;2022-11-09T11:10:23;13.61;83.71
68257;DHT22;55069;51.568;4.656;2022-11-09T11:15:51;13.70;83.01
68257;DHT22;55069;51.568;4.656;2022-11-09T11:18:36;13.70;82.56
68257;DHT22;55069;51.568;4.656;2022-11-09T11:21:22;13.68;83.09
68257;DHT22;55069;51.568;4.656;2022-11-09T11:24:17;13.66;83.06
68257;DHT22;55069;51.568;4.656;2022-11-09T11:27:12;13.63;83.01
68257;DHT22;55069;51.568;4.656;2022-11-09T11:30:14;13.68;82.91
68257;DHT22;55069;51.568;4.656;2022-11-09T11:32:59;13.75;81.97
68257;DHT22;55069;51.568;4.656;2022-11-09T11:35:50;13.79;81.37
68257;DHT22;55069;51.568;4.656;2022-11-09T11:38:40;13.66;82.07
68257;DHT22;55069;51.568;4.656;2022-11-09T12:00:13;14.14;80.15
68257;DHT22;55069;51.568;4.656;2022-11-09T12:12:34;14.40;77.62
68257;DHT22;55069;51.568;4.656;2022-11-09T12:15:50;14.40;76.63
68257;DHT22;55069;51.568;4.656;2022-11-09T12:21:59;14.39;74.46
68257;DHT22;55069;51.568;4.656;2022-11-09T12:30:52;14.50;74.77
68257;DHT22;55069;51.568;4.656;2022-11-09T12:39:40;14.69;74.51
68257;DHT22;55069;51.568;4.656;2022-11-09T12:43:03;14.69;73.69
68257;DHT22;55069;51.568;4.656;2022-11-09T12:45:46;14.73;73.66
68257;DHT22;55069;51.568;4.656;2022-11-09T12:48:34;14.63;73.79
68257;DHT22;55069;51.568;4.656;2022-11-09T12:51:18;14.50;74.33
68257;DHT22;55069;51.568;4.656;2022-11-09T12:54:05;14.49;75.64
68257;DHT22;55069;51.568;4.656;2022-11-09T12:57:19;14.67;75.19
68257;DHT22;55069;51.568;4.656;2022-11-09T13:00:04;14.69;74.40
68257;DHT22;55069;51.568;4.656;2022-11-09T13:02:53;14.74;75.15
68257;DHT22;55069;51.568;4.656;2022-11-09T13:05:38;14.73;74.26
68257;DHT22;55069;51.568;4.656;2022-11-09T13:08:26;14.59;74.81
68257;DHT22;55069;51.568;4.656;2022-11-09T13:29:46;14.69;74.46
68257;DHT22;55069;51.568;4.656;2022-11-09T13:32:31;14.61;73.72
68257;DHT22;55069;51.568;4.656;2022-11-09T13:38:24;14.73;73.95
68257;DHT22;55069;51.568;4.656;2022-11-09T13:46:59;14.74;73.52
68257;DHT22;55069;51.568;4.656;2022-11-09T13:49:46;14.74;73.53
68257;DHT22;55069;51.568;4.656;2022-11-09T13:52:46;14.80;73.79
68257;DHT22;55069;51.568;4.656;2022-11-09T13:58:26;14.64;72.55
68257;DHT22;55069;51.568;4.656;2022-11-09T14:01:35;14.76;71.91
68257;DHT22;55069;51.568;4.656;2022-11-09T14:04:36;14.81;72.26
68257;DHT22;55069;51.568;4.656;2022-11-09T14:07:23;14.71;72.44
68257;DHT22;55069;51.568;4.656;2022-11-09T14:10:31;14.59;71.10
68257;DHT22;55069;51.568;4.656;2022-11-09T14:13:51;14.55;71.96
68257;DHT22;55069;51.568;4.656;2022-11-09T14:17:40;14.55;73.09
68257;DHT22;55069;51.568;4.656;2022-11-09T14:20:19;14.60;71.59
68257;DHT22;55069;51.568;4.656;2022-11-09T14:23:20;14.53;71.11
68257;DHT22;55069;51.568;4.656;2022-11-09T14:26:15;14.46;71.45
68257;DHT22;55069;51.568;4.656;2022-11-09T14:29:18;14.52;72.02
68257;DHT22;55069;51.568;4.656;2022-11-09T14:32:33;14.40;71.31
68257;DHT22;55069;51.568;4.656;2022-11-09T14:35:26;14.26;72.91
68257;DHT22;55069;51.568;4.656;2022-11-09T14:38:15;14.33;73.51
68257;DHT22;55069;51.568;4.656;2022-11-09T14:41:01;14.46;72.18
68257;DHT22;55069;51.568;4.656;2022-11-09T14:43:47;14.47;71.94
68257;DHT22;55069;51.568;4.656;2022-11-09T14:46:32;14.42;71.96
68257;DHT22;55069;51.568;4.656;2022-11-09T14:49:17;14.29;72.43
68257;DHT22;55069;51.568;4.656;2022-11-09T14:52:02;14.16;72.89
68257;DHT22;55069;51.568;4.656;2022-11-09T14:54:48;14.08;73.56
68257;DHT22;55069;51.568;4.656;2022-11-09T14:57:32;14.04;73.38
68257;DHT22;55069;51.568;4.656;2022-11-09T15:00:32;14.09;73.19
68257;DHT22;55069;51.568;4.656;2022-11-09T15:03:23;14.15;73.41
68257;DHT22;55069;51.568;4.656;2022-11-09T15:06:09;14.14;73.14
68257;DHT22;55069;51.568;4.656;2022-11-09T15:08:56;14.06;73.06
68257;DHT22;55069;51.568;4.656;2022-11-09T15:11:41;14.04;72.95
68257;DHT22;55069;51.568;4.656;2022-11-09T15:14:31;14.04;74.20
68257;DHT22;55069;51.568;4.656;2022-11-09T15:17:25;13.91;73.30
68257;DHT22;55069;51.568;4.656;2022-11-09T15:22:59;13.91;73.80
68257;DHT22;55069;51.568;4.656;2022-11-09T15:28:29;13.73;74.62
68257;DHT22;55069;51.568;4.656;2022-11-09T15:31:15;13.70;74.31
68257;DHT22;55069;51.568;4.656;2022-11-09T15:34:20;13.63;75.12
68257;DHT22;55069;51.568;4.656;2022-11-09T15:40:10;13.61;75.01
68257;DHT22;55069;51.568;4.656;2022-11-09T15:42:54;13.58;74.86
68257;DHT22;55069;51.568;4.656;2022-11-09T15:45:38;13.51;74.88
68257;DHT22;55069;51.568;4.656;2022-11-09T15:48:22;13.53;74.79
68257;DHT22;55069;51.568;4.656;2022-11-09T15:51:06;13.46;75.31
68257;DHT22;55069;51.568;4.656;2022-11-09T15:53:50;13.43;76.15
68257;DHT22;55069;51.568;4.656;2022-11-09T15:56:34;13.33;75.88
68257;DHT22;55069;51.568;4.656;2022-11-09T15:59:24;13.29;76.08
68257;DHT22;55069;51.568;4.656;2022-11-09T16:02:09;13.29;76.20
68257;DHT22;55069;51.568;4.656;2022-11-09T16:04:54;13.24;76.12
68257;DHT22;55069;51.568;4.656;2022-11-09T16:07:54;13.23;76.70
68257;DHT22;55069;51.568;4.656;2022-11-09T16:10:39;13.20;77.31
68257;DHT22;55069;51.568;4.656;2022-11-09T16:13:23;13.15;76.77
68257;DHT22;55069;51.568;4.656;2022-11-09T16:16:10;13.12;76.84
68257;DHT22;55069;51.568;4.656;2022-11-09T16:18:55;13.08;77.21
68257;DHT22;55069;51.568;4.656;2022-11-09T16:21:40;13.02;77.67
68257;DHT22;55069;51.568;4.656;2022-11-09T16:24:24;12.95;78.39
68257;DHT22;55069;51.568;4.656;2022-11-09T16:27:09;12.95;78.07
68257;DHT22;55069;51.568;4.656;2022-11-09T16:29:53;12.87;79.58
68257;DHT22;55069;51.568;4.656;2022-11-09T16:32:37;12.77;78.97
68257;DHT22;55069;51.568;4.656;2022-11-09T16:35:22;12.79;79.23
68257;DHT22;55069;51.568;4.656;2022-11-09T16:38:06;12.77;79.91
68257;DHT22;55069;51.568;4.656;2022-11-09T16:40:50;12.75;79.40
68257;DHT22;55069;51.568;4.656;2022-11-09T16:43:35;12.79;79.34
68257;DHT22;55069;51.568;4.656;2022-11-09T16:46:22;12.85;79.55
68257;DHT22;55069;51.568;4.656;2022-11-09T16:49:06;12.89;79.47
68257;DHT22;55069;51.568;4.656;2022-11-09T16:51:51;12.88;79.79
68257;DHT22;55069;51.568;4.656;2022-11-09T16:54:35;12.87;79.66
68257;DHT22;55069;51.568;4.656;2022-11-09T16:57:19;12.84;80.28
68257;DHT22;55069;51.568;4.656;2022-11-09T17:00:05;12.88;79.67
68257;DHT22;55069;51.568;4.656;2022-11-09T17:02:49;12.91;80.16
68257;DHT22;55069;51.568;4.656;2022-11-09T17:05:33;12.84;80.13
68257;DHT22;55069;51.568;4.656;2022-11-09T17:08:17;12.81;80.00
68257;DHT22;55069;51.568;4.656;2022-11-09T17:11:06;12.69;80.62
68257;DHT22;55069;51.568;4.656;2022-11-09T17:13:57;12.68;80.89
68257;DHT22;55069;51.568;4.656;2022-11-09T17:16:42;12.61;81.04
68257;DHT22;55069;51.568;4.656;2022-11-09T17:19:33;12.47;81.67
68257;DHT22;55069;51.568;4.656;2022-11-09T17:22:18;12.37;82.34
68257;DHT22;55069;51.568;4.656;2022-11-09T17:25:03;12.20;82.66
68257;DHT22;55069;51.568;4.656;2022-11-09T17:27:47;12.13;82.85
68257;DHT22;55069;51.568;4.656;2022-11-09T17:30:32;12.09;83.21
68257;DHT22;55069;51.568;4.656;2022-11-09T17:33:16;12.06;83.52
68257;DHT22;55069;51.568;4.656;2022-11-09T17:36:04;11.97;83.57
68257;DHT22;55069;51.568;4.656;2022-11-09T17:38:49;11.86;83.77
68257;DHT22;55069;51.568;4.656;2022-11-09T17:41:33;11.79;84.26
68257;DHT22;55069;51.568;4.656;2022-11-09T17:44:17;11.85;84.38
68257;DHT22;55069;51.568;4.656;2022-11-09T17:47:01;11.76;84.43
68257;DHT22;55069;51.568;4.656;2022-11-09T17:49:46;11.69;84.89
68257;DHT22;55069;51.568;4.656;2022-11-09T17:52:30;11.69;84.82
68257;DHT22;55069;51.568;4.656;2022-11-09T17:55:14;11.65;85.12
68257;DHT22;55069;51.568;4.656;2022-11-09T17:57:59;11.68;85.17
68257;DHT22;55069;51.568;4.656;2022-11-09T18:00:43;11.76;84.95
68257;DHT22;55069;51.568;4.656;2022-11-09T18:03:31;11.85;84.73
68257;DHT22;55069;51.568;4.656;2022-11-09T18:06:17;11.90;84.53
68257;DHT22;55069;51.568;4.656;2022-11-09T18:09:02;11.92;84.66
68257;DHT22;55069;51.568;4.656;2022-11-09T18:11:47;11.93;84.50
68257;DHT22;55069;51.568;4.656;2022-11-09T18:14:31;11.92;84.59